sensor_id;sensor_type;location;lat;lon;timestamp;temperature;humidity
64817;DHT22;69411;45.656;11.740;2023-06-14T00:00:21;19.60;72.90
64817;DHT22;69411;45.656;11.740;2023-06-14T00:02:48;19.60;73.00
64817;DHT22;69411;45.656;11.740;2023-06-14T00:05:14;19.60;72.90
64817;DHT22;69411;45.656;11.740;2023-06-14T00:07:41;19.50;72.90
64817;DHT22;69411;45.656;11.740;2023-06-14T00:10:14;19.50;73.10
64817;DHT22;69411;45.656;11.740;2023-06-14T00:12:40;19.40;73.30
64817;DHT22;69411;45.656;11.740;2023-06-14T00:15:07;19.40;73.30
64817;DHT22;69411;45.656;11.740;2023-06-14T00:17:35;19.40;73.20
64817;DHT22;69411;45.656;11.740;2023-06-14T00:20:03;19.30;73.10
64817;DHT22;69411;45.656;11.740;2023-06-14T00:22:31;19.30;73.10
64817;DHT22;69411;45.656;11.740;2023-06-14T00:24:58;19.30;73.10
64817;DHT22;69411;45.656;11.740;2023-06-14T00:27:24;19.20;72.80
64817;DHT22;69411;45.656;11.740;2023-06-14T00:29:51;19.20;72.80
64817;DHT22;69411;45.656;11.740;2023-06-14T00:32:18;19.20;72.70
64817;DHT22;69411;45.656;11.740;2023-06-14T00:34:44;19.20;72.60
64817;DHT22;69411;45.656;11.740;2023-06-14T00:37:10;19.20;72.60
64817;DHT22;69411;45.656;11.740;2023-06-14T00:39:36;19.20;72.60
64817;DHT22;69411;45.656;11.740;2023-06-14T00:42:02;19.20;72.50
64817;DHT22;69411;45.656;11.740;2023-06-14T00:44:28;19.20;72.50
64817;DHT22;69411;45.656;11.740;2023-06-14T00:46:54;19.10;72.50
64817;DHT22;69411;45.656;11.740;2023-06-14T00:49:20;19.10;72.50
64817;DHT22;69411;45.656;11.740;2023-06-14T00:51:47;19.10;72.50
64817;DHT22;69411;45.656;11.740;2023-06-14T00:54:12;19.10;72.50
64817;DHT22;69411;45.656;11.740;2023-06-14T00:56:39;19.00;72.60
64817;DHT22;69411;45.656;11.740;2023-06-14T00:59:06;19.00;72.80
64817;DHT22;69411;45.656;11.740;2023-06-14T01:01:32;19.00;72.80
64817;DHT22;69411;45.656;11.740;2023-06-14T01:03:59;18.90;72.80
64817;DHT22;69411;45.656;11.740;2023-06-14T01:09:43;18.90;72.90
64817;DHT22;69411;45.656;11.740;2023-06-14T01:12:29;18.90;73.00
64817;DHT22;69411;45.656;11.740;2023-06-14T01:14:57;18.90;72.80
64817;DHT22;69411;45.656;11.740;2023-06-14T01:17:25;18.80;72.90
64817;DHT22;69411;45.656;11.740;2023-06-14T01:19:52;18.80;72.90
64817;DHT22;69411;45.656;11.740;2023-06-14T01:22:26;18.80;72.90
64817;DHT22;69411;45.656;11.740;2023-06-14T01:24:52;18.80;72.90
64817;DHT22;69411;45.656;11.740;2023-06-14T01:27:26;18.80;73.00
64817;DHT22;69411;45.656;11.740;2023-06-14T01:29:58;18.80;72.80
64817;DHT22;69411;45.656;11.740;2023-06-14T01:32:27;18.80;72.80
64817;DHT22;69411;45.656;11.740;2023-06-14T01:34:54;18.80;72.90
64817;DHT22;69411;45.656;11.740;2023-06-14T01:37:20;18.90;72.90
64817;DHT22;69411;45.656;11.740;2023-06-14T01:39:48;18.80;72.90
64817;DHT22;69411;45.656;11.740;2023-06-14T01:42:16;18.90;72.80
64817;DHT22;69411;45.656;11.740;2023-06-14T01:44:43;18.80;72.80
64817;DHT22;69411;45.656;11.740;2023-06-14T01:47:10;18.80;72.80
64817;DHT22;69411;45.656;11.740;2023-06-14T01:49:36;18.90;72.90
64817;DHT22;69411;45.656;11.740;2023-06-14T01:52:04;18.80;72.80
64817;DHT22;69411;45.656;11.740;2023-06-14T01:54:30;18.90;72.80
64817;DHT22;69411;45.656;11.740;2023-06-14T01:56:57;18.90;72.80
64817;DHT22;69411;45.656;11.740;2023-06-14T01:59:23;18.90;72.90
64817;DHT22;69411;45.656;11.740;2023-06-14T02:01:49;18.90;73.10
64817;DHT22;69411;45.656;11.740;2023-06-14T02:04:15;18.90;73.00
64817;DHT22;69411;45.656;11.740;2023-06-14T02:06:40;18.80;73.00
64817;DHT22;69411;45.656;11.740;2023-06-14T02:09:06;18.80;73.00
64817;DHT22;69411;45.656;11.740;2023-06-14T02:11:32;18.80;73.00
64817;DHT22;69411;45.656;11.740;2023-06-14T02:13:58;18.80;73.00
64817;DHT22;69411;45.656;11.740;2023-06-14T02:16:25;18.80;73.10
64817;DHT22;69411;45.656;11.740;2023-06-14T02:18:54;18.80;73.00
64817;DHT22;69411;45.656;11.740;2023-06-14T02:21:20;18.80;72.90
64817;DHT22;69411;45.656;11.740;2023-06-14T02:23:46;18.80;72.90
64817;DHT22;69411;45.656;11.740;2023-06-14T02:26:12;18.80;73.00
64817;DHT22;69411;45.656;11.740;2023-06-14T02:28:37;18.80;72.90
64817;DHT22;69411;45.656;11.740;2023-06-14T02:31:03;18.80;72.80
64817;DHT22;69411;45.656;11.740;2023-06-14T02:33:29;18.80;72.80
64817;DHT22;69411;45.656;11.740;2023-06-14T02:35:55;18.80;72.80
64817;DHT22;69411;45.656;11.740;2023-06-14T02:38:21;18.80;72.90
64817;DHT22;69411;45.656;11.740;2023-06-14T02:40:48;18.80;72.90
64817;DHT22;69411;45.656;11.740;2023-06-14T02:43:14;18.70;73.00
64817;DHT22;69411;45.656;11.740;2023-06-14T02:45:40;18.70;73.00
64817;DHT22;69411;45.656;11.740;2023-06-14T02:48:06;18.70;73.10
64817;DHT22;69411;45.656;11.740;2023-06-14T02:50:32;18.70;73.20
64817;DHT22;69411;45.656;11.740;2023-06-14T02:52:58;18.70;73.40
64817;DHT22;69411;45.656;11.740;2023-06-14T02:55:24;18.60;73.30
64817;DHT22;69411;45.656;11.740;2023-06-14T02:57:52;18.60;73.40
64817;DHT22;69411;45.656;11.740;2023-06-14T03:00:19;18.60;73.50
64817;DHT22;69411;45.656;11.740;2023-06-14T03:02:45;18.60;73.50
64817;DHT22;69411;45.656;11.740;2023-06-14T03:05:11;18.60;73.50
64817;DHT22;69411;45.656;11.740;2023-06-14T03:07:38;18.50;73.60
64817;DHT22;69411;45.656;11.740;2023-06-14T03:10:08;18.50;73.70
64817;DHT22;69411;45.656;11.740;2023-06-14T03:12:35;18.50;73.70
64817;DHT22;69411;45.656;11.740;2023-06-14T03:15:02;18.50;73.70
64817;DHT22;69411;45.656;11.740;2023-06-14T03:17:28;18.50;73.80
64817;DHT22;69411;45.656;11.740;2023-06-14T03:19:58;18.40;73.90
64817;DHT22;69411;45.656;11.740;2023-06-14T03:22:24;18.40;73.90
64817;DHT22;69411;45.656;11.740;2023-06-14T03:24:52;18.40;74.00
64817;DHT22;69411;45.656;11.740;2023-06-14T03:27:18;18.40;74.00
64817;DHT22;69411;45.656;11.740;2023-06-14T03:29:44;18.40;74.10
64817;DHT22;69411;45.656;11.740;2023-06-14T03:32:10;18.40;74.20
64817;DHT22;69411;45.656;11.740;2023-06-14T03:34:36;18.40;74.20
64817;DHT22;69411;45.656;11.740;2023-06-14T03:37:04;18.40;74.20
64817;DHT22;69411;45.656;11.740;2023-06-14T03:39:30;18.50;74.10
64817;DHT22;69411;45.656;11.740;2023-06-14T03:41:56;18.50;74.10
64817;DHT22;69411;45.656;11.740;2023-06-14T03:44:22;18.40;74.10
64817;DHT22;69411;45.656;11.740;2023-06-14T03:46:48;18.50;73.80
64817;DHT22;69411;45.656;11.740;2023-06-14T03:49:14;18.50;73.90
64817;DHT22;69411;45.656;11.740;2023-06-14T03:51:42;18.60;73.70
64817;DHT22;69411;45.656;11.740;2023-06-14T03:54:08;18.60;73.50
64817;DHT22;69411;45.656;11.740;2023-06-14T03:56:34;18.70;73.50
64817;DHT22;69411;45.656;11.740;2023-06-14T03:59:02;18.70;73.50
64817;DHT22;69411;45.656;11.740;2023-06-14T04:01:28;18.80;73.30
64817;DHT22;69411;45.656;11.740;2023-06-14T04:03:56;18.90;73.30
64817;DHT22;69411;45.656;11.740;2023-06-14T04:06:23;18.90;73.10
64817;DHT22;69411;45.656;11.740;2023-06-14T04:08:51;18.90;73.20
64817;DHT22;69411;45.656;11.740;2023-06-14T04:11:17;19.00;73.10
64817;DHT22;69411;45.656;11.740;2023-06-14T04:13:44;19.10;73.00
64817;DHT22;69411;45.656;11.740;2023-06-14T04:16:10;19.10;72.90
64817;DHT22;69411;45.656;11.740;2023-06-14T04:18:36;19.20;72.80
64817;DHT22;69411;45.656;11.740;2023-06-14T04:21:02;19.30;72.60
64817;DHT22;69411;45.656;11.740;2023-06-14T04:23:28;19.40;72.60
64817;DHT22;69411;45.656;11.740;2023-06-14T04:25:54;19.40;72.40
64817;DHT22;69411;45.656;11.740;2023-06-14T04:28:20;19.50;72.50
64817;DHT22;69411;45.656;11.740;2023-06-14T04:30:51;19.50;72.40
64817;DHT22;69411;45.656;11.740;2023-06-14T04:33:16;19.60;72.30
64817;DHT22;69411;45.656;11.740;2023-06-14T04:35:43;19.70;72.10
64817;DHT22;69411;45.656;11.740;2023-06-14T04:38:13;19.70;72.00
64817;DHT22;69411;45.656;11.740;2023-06-14T04:40:39;19.80;71.90
64817;DHT22;69411;45.656;11.740;2023-06-14T04:43:09;19.90;71.70
64817;DHT22;69411;45.656;11.740;2023-06-14T04:45:38;20.00;71.60
64817;DHT22;69411;45.656;11.740;2023-06-14T04:48:05;20.10;71.60
64817;DHT22;69411;45.656;11.740;2023-06-14T04:50:32;20.30;71.50
64817;DHT22;69411;45.656;11.740;2023-06-14T04:52:59;20.60;71.40
64817;DHT22;69411;45.656;11.740;2023-06-14T04:55:25;20.80;70.90
64817;DHT22;69411;45.656;11.740;2023-06-14T04:57:52;21.10;70.80
64817;DHT22;69411;45.656;11.740;2023-06-14T05:00:20;21.40;70.00
64817;DHT22;69411;45.656;11.740;2023-06-14T05:02:46;21.40;69.20
64817;DHT22;69411;45.656;11.740;2023-06-14T05:05:14;21.50;68.70
64817;DHT22;69411;45.656;11.740;2023-06-14T05:07:41;21.50;68.70
64817;DHT22;69411;45.656;11.740;2023-06-14T05:10:07;21.60;68.50
64817;DHT22;69411;45.656;11.740;2023-06-14T05:12:33;21.80;68.00
64817;DHT22;69411;45.656;11.740;2023-06-14T05:14:59;21.90;68.00
64817;DHT22;69411;45.656;11.740;2023-06-14T05:17:25;21.90;67.70
64817;DHT22;69411;45.656;11.740;2023-06-14T05:19:54;22.00;67.60
64817;DHT22;69411;45.656;11.740;2023-06-14T05:22:22;22.10;67.40
64817;DHT22;69411;45.656;11.740;2023-06-14T05:24:48;22.30;67.00
64817;DHT22;69411;45.656;11.740;2023-06-14T05:27:14;22.40;66.80
64817;DHT22;69411;45.656;11.740;2023-06-14T05:29:40;22.60;66.50
64817;DHT22;69411;45.656;11.740;2023-06-14T05:32:06;22.80;66.10
64817;DHT22;69411;45.656;11.740;2023-06-14T05:34:32;23.20;65.80
64817;DHT22;69411;45.656;11.740;2023-06-14T05:36:59;23.70;64.70
64817;DHT22;69411;45.656;11.740;2023-06-14T05:39:25;24.70;63.80
64817;DHT22;69411;45.656;11.740;2023-06-14T05:41:52;26.20;61.70
64817;DHT22;69411;45.656;11.740;2023-06-14T05:44:18;27.90;58.00
64817;DHT22;69411;45.656;11.740;2023-06-14T05:46:43;29.50;55.00
64817;DHT22;69411;45.656;11.740;2023-06-14T05:49:09;30.70;52.00
64817;DHT22;69411;45.656;11.740;2023-06-14T05:51:37;31.30;50.00
64817;DHT22;69411;45.656;11.740;2023-06-14T05:54:03;32.00;48.60
64817;DHT22;69411;45.656;11.740;2023-06-14T05:56:29;33.10;47.50
64817;DHT22;69411;45.656;11.740;2023-06-14T05:58:55;34.10;44.00
64817;DHT22;69411;45.656;11.740;2023-06-14T06:01:21;35.10;42.90
64817;DHT22;69411;45.656;11.740;2023-06-14T06:03:47;35.80;41.00
64817;DHT22;69411;45.656;11.740;2023-06-14T06:06:14;35.90;40.00
64817;DHT22;69411;45.656;11.740;2023-06-14T06:08:40;35.90;39.70
64817;DHT22;69411;45.656;11.740;2023-06-14T06:11:06;36.40;39.70
64817;DHT22;69411;45.656;11.740;2023-06-14T06:13:32;36.40;37.60
64817;DHT22;69411;45.656;11.740;2023-06-14T06:15:58;36.30;38.40
64817;DHT22;69411;45.656;11.740;2023-06-14T06:18:24;36.60;38.00
64817;DHT22;69411;45.656;11.740;2023-06-14T06:20:50;36.90;37.60
64817;DHT22;69411;45.656;11.740;2023-06-14T06:23:16;36.40;35.80
64817;DHT22;69411;45.656;11.740;2023-06-14T06:25:43;35.90;36.40
64817;DHT22;69411;45.656;11.740;2023-06-14T06:28:09;35.50;36.60
64817;DHT22;69411;45.656;11.740;2023-06-14T06:30:35;34.90;37.00
64817;DHT22;69411;45.656;11.740;2023-06-14T06:33:02;34.40;37.80
64817;DHT22;69411;45.656;11.740;2023-06-14T06:35:28;34.40;37.80
64817;DHT22;69411;45.656;11.740;2023-06-14T06:37:56;34.60;36.70
64817;DHT22;69411;45.656;11.740;2023-06-14T06:40:22;34.50;37.00
64817;DHT22;69411;45.656;11.740;2023-06-14T06:42:48;34.40;37.20
64817;DHT22;69411;45.656;11.740;2023-06-14T06:45:15;34.20;36.90
64817;DHT22;69411;45.656;11.740;2023-06-14T06:47:41;33.70;38.00
64817;DHT22;69411;45.656;11.740;2023-06-14T06:50:07;33.10;37.80
64817;DHT22;69411;45.656;11.740;2023-06-14T06:52:34;32.50;38.30
64817;DHT22;69411;45.656;11.740;2023-06-14T06:55:00;32.00;39.90
64817;DHT22;69411;45.656;11.740;2023-06-14T06:57:27;31.70;40.70
64817;DHT22;69411;45.656;11.740;2023-06-14T06:59:55;31.10;38.80
64817;DHT22;69411;45.656;11.740;2023-06-14T07:02:21;30.70;41.30
64817;DHT22;69411;45.656;11.740;2023-06-14T07:04:47;30.50;41.40
64817;DHT22;69411;45.656;11.740;2023-06-14T07:07:13;30.20;41.80
64817;DHT22;69411;45.656;11.740;2023-06-14T07:09:39;29.60;41.60
64817;DHT22;69411;45.656;11.740;2023-06-14T07:12:06;29.20;41.50
64817;DHT22;69411;45.656;11.740;2023-06-14T07:14:32;28.90;43.10
64817;DHT22;69411;45.656;11.740;2023-06-14T07:16:58;28.60;43.20
64817;DHT22;69411;45.656;11.740;2023-06-14T07:19:24;28.50;43.50
64817;DHT22;69411;45.656;11.740;2023-06-14T07:21:50;28.30;43.70
64817;DHT22;69411;45.656;11.740;2023-06-14T07:24:16;28.10;44.50
64817;DHT22;69411;45.656;11.740;2023-06-14T07:26:42;28.00;44.60
64817;DHT22;69411;45.656;11.740;2023-06-14T07:29:08;27.90;44.60
64817;DHT22;69411;45.656;11.740;2023-06-14T07:31:34;27.70;44.40
64817;DHT22;69411;45.656;11.740;2023-06-14T07:34:00;27.40;45.40
64817;DHT22;69411;45.656;11.740;2023-06-14T07:36:26;27.30;46.30
64817;DHT22;69411;45.656;11.740;2023-06-14T07:38:52;27.20;46.40
64817;DHT22;69411;45.656;11.740;2023-06-14T07:41:18;27.00;46.60
64817;DHT22;69411;45.656;11.740;2023-06-14T07:43:44;26.90;47.10
64817;DHT22;69411;45.656;11.740;2023-06-14T07:46:10;26.80;47.60
64817;DHT22;69411;45.656;11.740;2023-06-14T07:48:36;26.80;47.80
64817;DHT22;69411;45.656;11.740;2023-06-14T07:51:02;26.80;48.30
64817;DHT22;69411;45.656;11.740;2023-06-14T07:53:28;26.60;48.40
64817;DHT22;69411;45.656;11.740;2023-06-14T07:55:56;26.40;48.70
64817;DHT22;69411;45.656;11.740;2023-06-14T07:58:22;26.40;48.60
64817;DHT22;69411;45.656;11.740;2023-06-14T08:00:48;26.40;48.50
64817;DHT22;69411;45.656;11.740;2023-06-14T08:03:15;26.20;47.50
64817;DHT22;69411;45.656;11.740;2023-06-14T08:05:41;26.20;48.70
64817;DHT22;69411;45.656;11.740;2023-06-14T08:08:07;26.30;48.60
64817;DHT22;69411;45.656;11.740;2023-06-14T08:10:33;26.40;49.30
64817;DHT22;69411;45.656;11.740;2023-06-14T08:12:59;26.40;47.70
64817;DHT22;69411;45.656;11.740;2023-06-14T08:15:25;26.40;49.00
64817;DHT22;69411;45.656;11.740;2023-06-14T08:17:51;26.70;49.90
64817;DHT22;69411;45.656;11.740;2023-06-14T08:20:17;26.80;48.90
64817;DHT22;69411;45.656;11.740;2023-06-14T08:22:43;26.90;48.60
64817;DHT22;69411;45.656;11.740;2023-06-14T08:25:12;27.00;49.20
64817;DHT22;69411;45.656;11.740;2023-06-14T08:27:38;27.10;48.20
64817;DHT22;69411;45.656;11.740;2023-06-14T08:30:04;27.20;48.40
64817;DHT22;69411;45.656;11.740;2023-06-14T08:32:30;27.10;48.80
64817;DHT22;69411;45.656;11.740;2023-06-14T08:34:56;26.90;49.80
64817;DHT22;69411;45.656;11.740;2023-06-14T08:37:22;26.80;48.90
64817;DHT22;69411;45.656;11.740;2023-06-14T08:39:48;26.90;49.10
64817;DHT22;69411;45.656;11.740;2023-06-14T08:42:14;26.90;48.80
64817;DHT22;69411;45.656;11.740;2023-06-14T08:44:41;26.90;49.20
64817;DHT22;69411;45.656;11.740;2023-06-14T08:47:07;26.90;48.90
64817;DHT22;69411;45.656;11.740;2023-06-14T08:49:38;26.60;47.00
64817;DHT22;69411;45.656;11.740;2023-06-14T08:52:05;26.40;48.50
64817;DHT22;69411;45.656;11.740;2023-06-14T08:54:34;26.40;48.60
64817;DHT22;69411;45.656;11.740;2023-06-14T08:57:03;26.30;49.30
64817;DHT22;69411;45.656;11.740;2023-06-14T08:59:32;26.20;49.60
64817;DHT22;69411;45.656;11.740;2023-06-14T09:02:06;26.20;49.80
64817;DHT22;69411;45.656;11.740;2023-06-14T09:04:32;26.10;50.00
64817;DHT22;69411;45.656;11.740;2023-06-14T09:06:59;26.00;50.90
64817;DHT22;69411;45.656;11.740;2023-06-14T09:09:25;25.90;50.20
64817;DHT22;69411;45.656;11.740;2023-06-14T09:11:54;25.80;50.10
64817;DHT22;69411;45.656;11.740;2023-06-14T09:14:23;25.70;51.20
64817;DHT22;69411;45.656;11.740;2023-06-14T09:16:55;25.60;51.00
64817;DHT22;69411;45.656;11.740;2023-06-14T09:19:22;25.50;51.80
64817;DHT22;69411;45.656;11.740;2023-06-14T09:21:49;25.50;52.30
64817;DHT22;69411;45.656;11.740;2023-06-14T09:24:15;25.40;51.60
64817;DHT22;69411;45.656;11.740;2023-06-14T09:26:41;25.50;51.90
64817;DHT22;69411;45.656;11.740;2023-06-14T09:29:08;25.60;51.20
64817;DHT22;69411;45.656;11.740;2023-06-14T09:31:35;25.70;51.80
64817;DHT22;69411;45.656;11.740;2023-06-14T09:34:02;25.60;51.50
64817;DHT22;69411;45.656;11.740;2023-06-14T09:36:30;25.70;52.30
64817;DHT22;69411;45.656;11.740;2023-06-14T09:39:01;25.60;52.70
64817;DHT22;69411;45.656;11.740;2023-06-14T09:41:37;25.60;52.10
64817;DHT22;69411;45.656;11.740;2023-06-14T09:44:05;25.60;52.00
64817;DHT22;69411;45.656;11.740;2023-06-14T09:46:33;25.60;52.00
64817;DHT22;69411;45.656;11.740;2023-06-14T09:49:00;25.60;51.20
64817;DHT22;69411;45.656;11.740;2023-06-14T09:51:27;25.50;51.80
64817;DHT22;69411;45.656;11.740;2023-06-14T09:53:59;25.50;51.70
64817;DHT22;69411;45.656;11.740;2023-06-14T09:56:28;25.50;51.20
64817;DHT22;69411;45.656;11.740;2023-06-14T09:58:58;25.50;51.50
64817;DHT22;69411;45.656;11.740;2023-06-14T10:01:26;25.40;52.10
64817;DHT22;69411;45.656;11.740;2023-06-14T10:04:07;25.40;52.20
64817;DHT22;69411;45.656;11.740;2023-06-14T10:06:41;25.40;51.60
64817;DHT22;69411;45.656;11.740;2023-06-14T10:09:10;25.50;51.50
64817;DHT22;69411;45.656;11.740;2023-06-14T10:11:37;25.60;50.90
64817;DHT22;69411;45.656;11.740;2023-06-14T10:14:10;25.50;50.70
64817;DHT22;69411;45.656;11.740;2023-06-14T10:16:57;25.50;51.00
64817;DHT22;69411;45.656;11.740;2023-06-14T10:19:48;25.60;52.50
64817;DHT22;69411;45.656;11.740;2023-06-14T10:22:22;25.60;52.20
64817;DHT22;69411;45.656;11.740;2023-06-14T10:24:50;25.60;52.20
64817;DHT22;69411;45.656;11.740;2023-06-14T10:27:17;25.70;51.60
64817;DHT22;69411;45.656;11.740;2023-06-14T10:32:20;25.60;51.60
64817;DHT22;69411;45.656;11.740;2023-06-14T10:34:54;25.60;51.40
64817;DHT22;69411;45.656;11.740;2023-06-14T10:37:20;25.60;51.30
64817;DHT22;69411;45.656;11.740;2023-06-14T10:39:47;25.70;52.10
64817;DHT22;69411;45.656;11.740;2023-06-14T10:42:14;25.70;51.60
64817;DHT22;69411;45.656;11.740;2023-06-14T10:44:41;25.80;51.40
64817;DHT22;69411;45.656;11.740;2023-06-14T10:50:11;26.10;51.10
64817;DHT22;69411;45.656;11.740;2023-06-14T10:52:42;26.40;50.50
64817;DHT22;69411;45.656;11.740;2023-06-14T10:55:15;26.50;50.60
64817;DHT22;69411;45.656;11.740;2023-06-14T10:57:47;26.60;50.60
64817;DHT22;69411;45.656;11.740;2023-06-14T11:00:18;26.90;50.10
64817;DHT22;69411;45.656;11.740;2023-06-14T11:05:52;27.20;49.10
64817;DHT22;69411;45.656;11.740;2023-06-14T11:11:07;26.90;49.70
64817;DHT22;69411;45.656;11.740;2023-06-14T11:13:33;26.90;48.80
64817;DHT22;69411;45.656;11.740;2023-06-14T11:15:59;26.90;48.40
64817;DHT22;69411;45.656;11.740;2023-06-14T11:18:26;26.90;48.00
64817;DHT22;69411;45.656;11.740;2023-06-14T11:20:54;26.80;47.40
64817;DHT22;69411;45.656;11.740;2023-06-14T11:23:21;26.80;47.90
64817;DHT22;69411;45.656;11.740;2023-06-14T11:25:51;26.80;47.00
64817;DHT22;69411;45.656;11.740;2023-06-14T11:28:17;26.70;47.00
64817;DHT22;69411;45.656;11.740;2023-06-14T11:30:45;26.70;47.30
64817;DHT22;69411;45.656;11.740;2023-06-14T11:33:17;26.70;46.80
64817;DHT22;69411;45.656;11.740;2023-06-14T11:35:44;26.60;47.60
64817;DHT22;69411;45.656;11.740;2023-06-14T11:38:11;26.60;47.20
64817;DHT22;69411;45.656;11.740;2023-06-14T11:40:38;26.70;47.30
64817;DHT22;69411;45.656;11.740;2023-06-14T11:43:04;26.80;47.60
64817;DHT22;69411;45.656;11.740;2023-06-14T11:45:31;26.80;46.90
64817;DHT22;69411;45.656;11.740;2023-06-14T11:47:58;26.70;46.30
64817;DHT22;69411;45.656;11.740;2023-06-14T11:50:25;26.80;46.70
64817;DHT22;69411;45.656;11.740;2023-06-14T11:55:21;26.80;46.50
64817;DHT22;69411;45.656;11.740;2023-06-14T11:57:47;26.80;46.60
64817;DHT22;69411;45.656;11.740;2023-06-14T12:00:14;26.90;46.90
64817;DHT22;69411;45.656;11.740;2023-06-14T12:02:41;26.90;47.10
64817;DHT22;69411;45.656;11.740;2023-06-14T12:05:08;27.00;47.20
64817;DHT22;69411;45.656;11.740;2023-06-14T12:07:38;27.20;47.00
64817;DHT22;69411;45.656;11.740;2023-06-14T12:10:09;27.30;46.60
64817;DHT22;69411;45.656;11.740;2023-06-14T12:12:37;27.30;46.70
64817;DHT22;69411;45.656;11.740;2023-06-14T12:15:08;27.40;46.80
64817;DHT22;69411;45.656;11.740;2023-06-14T12:17:36;27.40;46.40
64817;DHT22;69411;45.656;11.740;2023-06-14T12:20:11;27.40;46.00
64817;DHT22;69411;45.656;11.740;2023-06-14T12:22:57;27.20;44.30
64817;DHT22;69411;45.656;11.740;2023-06-14T12:25:29;27.00;45.20
64817;DHT22;69411;45.656;11.740;2023-06-14T12:27:57;27.00;48.50
64817;DHT22;69411;45.656;11.740;2023-06-14T12:30:23;27.00;46.90
64817;DHT22;69411;45.656;11.740;2023-06-14T12:32:49;27.00;46.10
64817;DHT22;69411;45.656;11.740;2023-06-14T12:35:17;26.80;44.90
64817;DHT22;69411;45.656;11.740;2023-06-14T12:37:45;26.80;46.00
64817;DHT22;69411;45.656;11.740;2023-06-14T12:40:12;26.80;47.10
64817;DHT22;69411;45.656;11.740;2023-06-14T12:42:38;26.80;46.00
64817;DHT22;69411;45.656;11.740;2023-06-14T12:45:04;26.80;45.40
64817;DHT22;69411;45.656;11.740;2023-06-14T12:47:30;26.90;45.80
64817;DHT22;69411;45.656;11.740;2023-06-14T12:49:56;27.00;45.20
64817;DHT22;69411;45.656;11.740;2023-06-14T12:52:22;26.90;45.90
64817;DHT22;69411;45.656;11.740;2023-06-14T12:54:49;26.90;45.30
64817;DHT22;69411;45.656;11.740;2023-06-14T12:57:15;26.80;44.40
64817;DHT22;69411;45.656;11.740;2023-06-14T12:59:41;26.80;45.20
64817;DHT22;69411;45.656;11.740;2023-06-14T13:02:17;26.90;46.10
64817;DHT22;69411;45.656;11.740;2023-06-14T13:04:44;27.00;45.30
64817;DHT22;69411;45.656;11.740;2023-06-14T13:07:10;27.00;45.30
64817;DHT22;69411;45.656;11.740;2023-06-14T13:09:41;27.00;46.80
64817;DHT22;69411;45.656;11.740;2023-06-14T13:12:08;26.90;43.90
64817;DHT22;69411;45.656;11.740;2023-06-14T13:14:37;27.00;46.50
64817;DHT22;69411;45.656;11.740;2023-06-14T13:17:03;27.10;44.90
64817;DHT22;69411;45.656;11.740;2023-06-14T13:19:29;27.00;45.30
64817;DHT22;69411;45.656;11.740;2023-06-14T13:21:55;27.00;45.50
64817;DHT22;69411;45.656;11.740;2023-06-14T13:24:21;27.00;45.70
64817;DHT22;69411;45.656;11.740;2023-06-14T13:26:47;27.00;44.50
64817;DHT22;69411;45.656;11.740;2023-06-14T13:29:14;27.00;45.20
64817;DHT22;69411;45.656;11.740;2023-06-14T13:31:40;27.00;45.80
64817;DHT22;69411;45.656;11.740;2023-06-14T13:34:06;27.10;45.60
64817;DHT22;69411;45.656;11.740;2023-06-14T13:36:32;27.20;45.50
64817;DHT22;69411;45.656;11.740;2023-06-14T13:38:58;27.30;45.20
64817;DHT22;69411;45.656;11.740;2023-06-14T13:41:27;27.30;45.00
64817;DHT22;69411;45.656;11.740;2023-06-14T13:43:59;27.20;46.10
64817;DHT22;69411;45.656;11.740;2023-06-14T13:46:36;27.20;46.50
64817;DHT22;69411;45.656;11.740;2023-06-14T13:49:03;27.20;44.30
64817;DHT22;69411;45.656;11.740;2023-06-14T13:51:31;27.20;45.00
64817;DHT22;69411;45.656;11.740;2023-06-14T13:53:57;27.20;45.20
64817;DHT22;69411;45.656;11.740;2023-06-14T13:56:23;27.30;44.70
64817;DHT22;69411;45.656;11.740;2023-06-14T13:58:50;27.30;44.90
64817;DHT22;69411;45.656;11.740;2023-06-14T14:01:17;27.40;44.60
64817;DHT22;69411;45.656;11.740;2023-06-14T14:03:46;27.40;44.30
64817;DHT22;69411;45.656;11.740;2023-06-14T14:06:12;27.30;44.20
64817;DHT22;69411;45.656;11.740;2023-06-14T14:08:38;27.30;44.30
64817;DHT22;69411;45.656;11.740;2023-06-14T14:11:05;27.30;43.50
64817;DHT22;69411;45.656;11.740;2023-06-14T14:13:32;27.30;43.70
64817;DHT22;69411;45.656;11.740;2023-06-14T14:15:58;27.30;43.20
64817;DHT22;69411;45.656;11.740;2023-06-14T14:18:24;27.20;43.40
64817;DHT22;69411;45.656;11.740;2023-06-14T14:20:50;27.10;43.70
64817;DHT22;69411;45.656;11.740;2023-06-14T14:23:16;27.00;43.80
64817;DHT22;69411;45.656;11.740;2023-06-14T14:25:42;27.00;43.80
64817;DHT22;69411;45.656;11.740;2023-06-14T14:28:08;27.00;43.40
64817;DHT22;69411;45.656;11.740;2023-06-14T14:30:34;27.10;43.70
64817;DHT22;69411;45.656;11.740;2023-06-14T14:33:00;27.10;43.80
64817;DHT22;69411;45.656;11.740;2023-06-14T14:35:26;27.10;43.90
64817;DHT22;69411;45.656;11.740;2023-06-14T14:37:56;27.20;43.90
64817;DHT22;69411;45.656;11.740;2023-06-14T14:40:22;27.20;43.90
64817;DHT22;69411;45.656;11.740;2023-06-14T14:42:49;27.20;44.00
64817;DHT22;69411;45.656;11.740;2023-06-14T14:45:15;27.30;43.90
64817;DHT22;69411;45.656;11.740;2023-06-14T14:47:40;27.30;43.60
64817;DHT22;69411;45.656;11.740;2023-06-14T14:50:07;27.30;43.10
64817;DHT22;69411;45.656;11.740;2023-06-14T14:52:35;27.30;43.30
64817;DHT22;69411;45.656;11.740;2023-06-14T14:55:01;27.30;43.10
64817;DHT22;69411;45.656;11.740;2023-06-14T14:57:27;27.20;43.30
64817;DHT22;69411;45.656;11.740;2023-06-14T14:59:55;27.20;43.50
64817;DHT22;69411;45.656;11.740;2023-06-14T15:02:21;27.20;43.60
64817;DHT22;69411;45.656;11.740;2023-06-14T15:04:49;27.30;43.40
64817;DHT22;69411;45.656;11.740;2023-06-14T15:07:15;27.40;43.10
64817;DHT22;69411;45.656;11.740;2023-06-14T15:09:41;27.50;43.10
64817;DHT22;69411;45.656;11.740;2023-06-14T15:12:08;27.50;43.20
64817;DHT22;69411;45.656;11.740;2023-06-14T15:14:34;27.50;43.20
64817;DHT22;69411;45.656;11.740;2023-06-14T15:17:00;27.50;43.60
64817;DHT22;69411;45.656;11.740;2023-06-14T15:19:27;27.40;44.00
64817;DHT22;69411;45.656;11.740;2023-06-14T15:21:53;27.50;43.90
64817;DHT22;69411;45.656;11.740;2023-06-14T15:24:19;27.50;43.90
64817;DHT22;69411;45.656;11.740;2023-06-14T15:26:45;27.60;43.80
64817;DHT22;69411;45.656;11.740;2023-06-14T15:29:11;27.60;43.40
64817;DHT22;69411;45.656;11.740;2023-06-14T15:31:37;27.60;43.00